createdAt,value
2022-08-09T00:00:21.023Z,87.49
2022-08-09T00:02:49.869Z,88.05
2022-08-09T00:06:17.654Z,88.56
2022-08-09T00:08:09.996Z,88.17
2022-08-09T00:10:41.269Z,87.54
2022-08-09T00:13:17.429Z,87.28
2022-08-09T00:15:59.508Z,86.91
2022-08-09T00:18:34.546Z,87.36
2022-08-09T00:21:07.988Z,87.24
2022-08-09T00:23:55.965Z,87.22
2022-08-09T00:26:32.664Z,86.82
2022-08-09T00:29:02.378Z,87.27
2022-08-09T00:31:57.217Z,87.34
2022-08-09T00:34:19.137Z,87.38
2022-08-09T00:36:50.044Z,88.47
2022-08-09T00:40:10.438Z,88.49
2022-08-09T00:44:15.308Z,89.07
2022-08-09T00:44:55.054Z,89.18
2022-08-09T00:47:25.003Z,88.47
2022-08-09T00:49:55.037Z,88.77
2022-08-09T00:52:30.450Z,88.66
2022-08-09T00:55:00.096Z,89.57
2022-08-09T00:57:34.874Z,90.31
2022-08-09T01:00:21.438Z,90.61
2022-08-09T01:03:12.860Z,91.32
2022-08-09T01:05:54.580Z,90.97
2022-08-09T01:08:28.310Z,91.30
2022-08-09T01:11:19.938Z,90.68
2022-08-09T01:13:59.015Z,90.73
2022-08-09T01:16:39.808Z,91.91
2022-08-09T01:19:40.293Z,92.72
2022-08-09T01:22:22.219Z,93.70
2022-08-09T01:25:00.786Z,94.38
2022-08-09T01:27:29.255Z,93.82
2022-08-09T01:30:01.078Z,93.99
2022-08-09T01:32:46.249Z,93.46
2022-08-09T01:35:38.047Z,94.26
2022-08-09T01:38:15.487Z,94.48
2022-08-09T01:41:08.082Z,93.54
2022-08-09T01:43:51.161Z,94.35
2022-08-09T01:46:26.999Z,94.12
2022-08-09T01:49:10.023Z,93.28
2022-08-09T01:51:58.425Z,94.33
2022-08-09T01:54:41.014Z,94.48
2022-08-09T01:57:16.766Z,94.76
2022-08-09T01:59:52.019Z,94.48
2022-08-09T02:02:21.778Z,94.68
2022-08-09T02:04:49.167Z,93.73
2022-08-09T02:08:35.978Z,93.59
2022-08-09T02:10:10.805Z,93.95
2022-08-09T02:12:39.318Z,94.77
2022-08-09T02:15:07.978Z,94.48
2022-08-09T02:17:59.889Z,93.66
2022-08-09T02:20:26.416Z,95.13
2022-08-09T02:23:11.259Z,94.28
2022-08-09T02:25:42.459Z,94.45
2022-08-09T02:28:41.117Z,95.10
2022-08-09T02:31:21.939Z,94.16
2022-08-09T02:34:07.493Z,93.88
2022-08-09T02:36:41.976Z,94.40
2022-08-09T02:39:14.284Z,94.66
2022-08-09T02:42:12.970Z,95.61
2022-08-09T02:44:47.163Z,96.24
2022-08-09T02:47:15.494Z,97.02
2022-08-09T02:49:55.362Z,97.33
2022-08-09T02:52:35.348Z,97.46
2022-08-09T02:55:03.170Z,97.80
2022-08-09T02:58:00.310Z,96.78
2022-08-09T03:00:30.230Z,96.07
2022-08-09T03:02:58.260Z,96.95
2022-08-09T03:05:28.118Z,96.26
2022-08-09T03:07:56.080Z,95.39
2022-08-09T03:10:25.196Z,95.34
2022-08-09T03:12:52.778Z,95.97
2022-08-09T03:15:23.070Z,96.13
2022-08-09T03:17:53.865Z,96.93
2022-08-09T03:20:29.743Z,96.84
2022-08-09T03:22:58.383Z,97.20
2022-08-09T03:25:58.115Z,97.19
2022-08-09T03:28:15.151Z,97.48
2022-08-09T03:30:44.374Z,98.14
2022-08-09T03:33:19.121Z,97.78
2022-08-09T03:36:15.879Z,96.89
2022-08-09T03:38:42.139Z,97.56
2022-08-09T03:41:15.037Z,97.28
2022-08-09T03:44:03.606Z,95.90
2022-08-09T03:46:34.784Z,95.19
2022-08-09T03:49:04.367Z,94.24
2022-08-09T03:51:55.142Z,93.89
2022-08-09T03:54:29.862Z,93.78
2022-08-09T03:57:00.282Z,94.67
2022-08-09T03:59:43.241Z,94.37
2022-08-09T04:02:14.912Z,94.93
2022-08-09T04:04:47.896Z,94.65
2022-08-09T04:07:18.348Z,94.63
2022-08-09T04:09:49.962Z,94.59
2022-08-09T04:12:33.208Z,94.67
2022-08-09T04:15:11.105Z,94.04
2022-08-09T04:17:42.367Z,93.48
2022-08-09T04:20:11.775Z,92.79
2022-08-09T04:22:41.271Z,92.19
2022-08-09T04:25:12.064Z,91.78
2022-08-09T04:27:48.946Z,92.19
2022-08-09T04:30:20.672Z,91.02
2022-08-09T04:32:48.270Z,91.45
2022-08-09T04:35:15.859Z,91.60
2022-08-09T04:37:46.248Z,89.77
2022-08-09T04:40:19.351Z,89.69
2022-08-09T04:42:56.745Z,89.22
2022-08-09T04:45:24.439Z,88.53
2022-08-09T04:48:03.102Z,88.75
2022-08-09T04:50:35.096Z,88.53
2022-08-09T04:53:13.607Z,87.32
2022-08-09T04:55:57.426Z,86.57
2022-08-09T04:58:27.109Z,86.88
2022-08-09T05:00:55.473Z,86.79
2022-08-09T05:03:40.571Z,85.73
2022-08-09T05:06:27.211Z,83.81
2022-08-09T05:09:00.201Z,82.61
2022-08-09T05:11:30.467Z,83.57
2022-08-09T05:13:59.991Z,83.45
2022-08-09T05:16:31.682Z,82.73
2022-08-09T05:19:00.472Z,82.61
2022-08-09T05:21:29.940Z,82.09
2022-08-09T05:24:01.701Z,81.38
2022-08-09T05:26:45.808Z,80.76
2022-08-09T05:29:21.233Z,79.76
2022-08-09T05:31:56.845Z,78.97
2022-08-09T05:34:30.926Z,76.90
2022-08-09T05:37:05.241Z,77.20
2022-08-09T05:39:43.139Z,75.01
2022-08-09T05:42:17.294Z,76.25
2022-08-09T05:44:51.328Z,75.23
2022-08-09T05:47:23.266Z,75.99
2022-08-09T05:50:26.746Z,75.97
2022-08-09T05:52:42.288Z,75.70
2022-08-09T05:55:20.908Z,75.31
2022-08-09T05:57:56.650Z,74.85
2022-08-09T06:00:30.101Z,71.61
2022-08-09T06:02:58.552Z,73.42
2022-08-09T06:05:50.099Z,72.72
2022-08-09T06:08:14.301Z,71.96
2022-08-09T06:10:47.261Z,71.07
2022-08-09T06:13:18.718Z,70.74
2022-08-09T06:15:52.331Z,71.00
2022-08-09T06:18:23.996Z,71.07
2022-08-09T06:20:54.554Z,69.54
2022-08-09T06:23:55.043Z,68.88
2022-08-09T06:26:12.456Z,68.70
2022-08-09T06:28:43.280Z,69.96
2022-08-09T06:31:10.837Z,67.83
2022-08-09T06:33:40.981Z,67.25
2022-08-09T06:36:09.469Z,66.34
2022-08-09T06:38:47.917Z,66.67
2022-08-09T06:41:20.474Z,67.24
2022-08-09T06:43:47.968Z,65.84
2022-08-09T06:46:39.640Z,65.87
2022-08-09T06:49:03.070Z,65.46
2022-08-09T06:51:31.038Z,66.22
2022-08-09T06:54:00.823Z,65.53
2022-08-09T06:56:30.851Z,64.75
2022-08-09T07:00:48.871Z,59.73
2022-08-09T07:01:53.548Z,60.97
2022-08-09T07:04:22.161Z,60.13
2022-08-09T07:06:53.156Z,57.98
2022-08-09T07:09:54.873Z,59.38
2022-08-09T07:12:13.788Z,59.55
2022-08-09T07:14:51.461Z,61.01
2022-08-09T07:17:23.903Z,61.44
2022-08-09T07:19:55.504Z,61.74
2022-08-09T07:22:39.527Z,58.09
2022-08-09T07:25:10.758Z,58.11
2022-08-09T07:27:42.675Z,54.85
2022-08-09T07:30:13.378Z,53.63
2022-08-09T07:32:41.567Z,55.90
2022-08-09T07:35:12.017Z,56.51
2022-08-09T07:37:43.444Z,55.05
2022-08-09T07:40:17.120Z,54.26
2022-08-09T07:42:59.022Z,53.04
2022-08-09T07:45:38.436Z,51.54
2022-08-09T07:48:28.585Z,49.61
2022-08-09T07:51:09.061Z,50.68
2022-08-09T07:54:04.897Z,49.00
2022-08-09T07:56:34.729Z,48.16
2022-08-09T07:59:08.778Z,49.10
2022-08-09T08:01:43.221Z,45.20
2022-08-09T08:04:20.670Z,46.02
2022-08-09T08:07:14.853Z,44.02
2022-08-09T08:09:54.935Z,46.11
2022-08-09T08:12:37.102Z,43.98
2022-08-09T08:15:17.401Z,44.72
2022-08-09T08:17:55.045Z,44.49
2022-08-09T08:20:29.521Z,42.78
2022-08-09T08:23:03.492Z,41.40
2022-08-09T08:25:44.681Z,41.51
2022-08-09T08:28:15.216Z,41.36
2022-08-09T08:30:46.797Z,41.05
2022-08-09T08:33:22.854Z,40.43
2022-08-09T08:36:00.039Z,38.63
2022-08-09T08:38:29.250Z,38.31
2022-08-09T08:40:57.020Z,38.38
2022-08-09T08:43:24.582Z,37.09
2022-08-09T08:46:09.993Z,35.86
2022-08-09T08:48:51.426Z,32.31
2022-08-09T08:51:19.395Z,33.88
2022-08-09T08:54:03.790Z,33.26
2022-08-09T08:56:38.781Z,32.12
2022-08-09T08:59:19.886Z,32.25
2022-08-09T09:01:53.385Z,33.97
2022-08-09T09:04:28.818Z,32.58
2022-08-09T09:06:58.126Z,34.14
2022-08-09T09:09:41.201Z,32.26
2022-08-09T09:12:18.029Z,32.46
2022-08-09T09:14:46.596Z,31.93
2022-08-09T09:17:16.589Z,32.20
2022-08-09T09:19:44.015Z,30.51
2022-08-09T09:22:16.780Z,29.05
2022-08-09T09:26:00.321Z,27.74
2022-08-09T09:28:04.055Z,26.67
2022-08-09T09:30:41.015Z,26.05
2022-08-09T09:33:15.683Z,24.94
2022-08-09T09:36:01.843Z,23.93
2022-08-09T09:38:57.450Z,23.72
2022-08-09T09:41:27.873Z,23.82
2022-08-09T09:44:11.419Z,22.23
2022-08-09T09:46:50.369Z,23.18
2022-08-09T09:49:32.289Z,23.09
2022-08-09T09:52:16.420Z,21.65
2022-08-09T09:55:16.547Z,21.41
2022-08-09T09:58:16.588Z,21.45
2022-08-09T10:00:54.935Z,22.24
2022-08-09T10:03:43.916Z,22.12
2022-08-09T10:06:12.562Z,21.52
2022-08-09T10:08:57.329Z,21.87
2022-08-09T10:12:00.779Z,20.96
2022-08-09T10:14:31.865Z,21.00
2022-08-09T10:17:39.905Z,19.63
2022-08-09T10:19:59.729Z,19.73
2022-08-09T10:22:35.154Z,20.39
2022-08-09T10:25:10.994Z,19.92
2022-08-09T10:27:57.198Z,20.08
2022-08-09T10:34:07.957Z,19.83
2022-08-09T10:36:03.503Z,19.24
2022-08-09T10:38:55.465Z,19.42
2022-08-09T10:41:20.690Z,19.13
2022-08-09T10:43:58.833Z,20.00
2022-08-09T10:46:47.606Z,18.99
2022-08-09T10:49:54.168Z,19.31
2022-08-09T10:53:11.393Z,20.61
2022-08-09T10:55:58.621Z,19.72
2022-08-09T10:58:31.027Z,18.64
2022-08-09T11:03:02.282Z,19.49
2022-08-09T11:04:28.488Z,19.92
2022-08-09T11:07:01.182Z,19.08
2022-08-09T11:09:38.045Z,18.08
2022-08-09T11:12:29.368Z,18.82
2022-08-09T11:15:18.947Z,19.20
2022-08-09T11:17:56.769Z,19.13
2022-08-09T11:20:49.632Z,19.24
2022-08-09T11:23:23.970Z,18.77
2022-08-09T11:25:57.500Z,18.48
2022-08-09T11:28:56.010Z,18.62
2022-08-09T11:31:48.778Z,19.60
2022-08-09T11:34:31.716Z,18.37
2022-08-09T11:36:59.377Z,18.05
2022-08-09T11:39:38.102Z,19.06
2022-08-09T11:42:09.432Z,18.06
2022-08-09T11:44:46.301Z,18.00
2022-08-09T11:47:14.391Z,18.29
2022-08-09T11:50:52.569Z,18.27
2022-08-09T11:53:16.368Z,18.83
2022-08-09T11:55:52.576Z,17.82
2022-08-09T11:58:32.278Z,18.02
2022-08-09T12:01:08.385Z,17.83
2022-08-09T12:03:55.822Z,17.78
2022-08-09T12:06:32.902Z,18.02
2022-08-09T12:09:19.287Z,18.30
2022-08-09T12:12:03.249Z,17.65
2022-08-09T12:14:36.805Z,18.42
2022-08-09T12:17:28.209Z,18.21
2022-08-09T12:20:03.826Z,18.27
2022-08-09T12:22:31.975Z,18.17
2022-08-09T12:25:15.932Z,17.67
2022-08-09T12:28:58.818Z,17.94
2022-08-09T12:30:38.173Z,18.00
2022-08-09T12:33:07.306Z,18.69
2022-08-09T12:35:41.068Z,18.16
2022-08-09T12:38:37.578Z,18.36
2022-08-09T12:41:07.315Z,18.60
2022-08-09T12:44:05.879Z,18.85
2022-08-09T12:46:24.145Z,18.42
2022-08-09T12:48:53.263Z,18.30
2022-08-09T12:51:52.456Z,18.53
2022-08-09T12:54:08.830Z,18.18
2022-08-09T12:56:48.754Z,18.54
2022-08-09T12:59:23.181Z,18.58
2022-08-09T13:01:59.604Z,18.83
2022-08-09T13:04:36.472Z,18.65
2022-08-09T13:07:16.688Z,18.78
2022-08-09T13:09:55.326Z,18.74
2022-08-09T13:12:23.488Z,19.31
2022-08-09T13:14:54.115Z,18.24
2022-08-09T13:17:58.763Z,19.23
2022-08-09T13:20:16.000Z,18.91
2022-08-09T13:23:05.463Z,19.29
2022-08-09T13:25:42.056Z,18.63
2022-08-09T13:28:18.706Z,19.11
2022-08-09T13:32:13.653Z,18.82
2022-08-09T13:33:53.557Z,19.08
2022-08-09T13:36:24.762Z,19.43
2022-08-09T13:41:50.812Z,18.93
2022-08-09T13:42:11.938Z,19.31
2022-08-09T13:44:43.742Z,19.19
2022-08-09T13:47:31.486Z,18.94
2022-08-09T13:50:01.729Z,18.73
2022-08-09T13:52:30.102Z,18.52
2022-08-09T13:55:00.571Z,19.12
2022-08-09T13:57:39.641Z,18.52
2022-08-09T14:00:15.495Z,18.43
2022-08-09T14:03:04.905Z,19.10
2022-08-09T14:05:58.778Z,19.39
2022-08-09T14:08:19.947Z,19.02
2022-08-09T14:10:50.642Z,18.96
2022-08-09T14:14:15.718Z,18.84
2022-08-09T14:16:13.693Z,18.38
2022-08-09T14:18:45.513Z,19.00
2022-08-09T14:21:20.511Z,18.72
2022-08-09T14:23:55.413Z,19.64
2022-08-09T14:26:32.693Z,20.07
2022-08-09T14:29:07.774Z,20.40
2022-08-09T14:31:53.842Z,20.98
2022-08-09T14:34:30.990Z,21.09
2022-08-09T14:37:09.096Z,21.44
2022-08-09T14:39:45.204Z,21.38
2022-08-09T14:42:31.780Z,21.62
2022-08-09T14:46:40.481Z,21.23
2022-08-09T14:47:57.860Z,22.51
2022-08-09T14:50:31.447Z,22.33
2022-08-09T14:53:00.301Z,21.90
2022-08-09T14:55:32.119Z,21.91
2022-08-09T14:58:03.344Z,22.33
2022-08-09T15:00:34.467Z,22.12
2022-08-09T15:03:05.758Z,22.02
2022-08-09T15:05:33.382Z,22.29
2022-08-09T15:08:01.314Z,23.17
2022-08-09T15:10:29.218Z,22.68
2022-08-09T15:12:59.537Z,23.30
2022-08-09T15:15:29.089Z,24.36
2022-08-09T15:17:56.609Z,24.35
2022-08-09T15:21:57.607Z,23.35
2022-08-09T15:24:05.992Z,23.64
2022-08-09T15:26:00.438Z,23.97
2022-08-09T15:28:28.746Z,25.28
2022-08-09T15:31:14.562Z,24.99
2022-08-09T15:34:17.349Z,25.06
2022-08-09T15:36:33.251Z,26.22
2022-08-09T15:39:00.765Z,27.27
2022-08-09T15:41:31.486Z,27.32
2022-08-09T15:44:02.910Z,28.32
2022-08-09T15:46:34.347Z,29.90
2022-08-09T15:49:22.927Z,31.23
2022-08-09T15:52:04.566Z,30.74
2022-08-09T15:54:50.465Z,31.73
2022-08-09T15:57:35.100Z,31.90
2022-08-09T16:00:13.931Z,31.66
2022-08-09T16:02:53.717Z,33.22
2022-08-09T16:05:22.859Z,33.02
2022-08-09T16:07:50.678Z,32.19
2022-08-09T16:10:54.823Z,32.71
2022-08-09T16:13:20.948Z,32.79
2022-08-09T16:16:04.628Z,34.76
2022-08-09T16:18:45.241Z,33.52
2022-08-09T16:21:16.872Z,34.34
2022-08-09T16:23:54.861Z,35.07
2022-08-09T16:26:35.041Z,35.21
2022-08-09T16:29:11.555Z,35.89
2022-08-09T16:32:19.086Z,37.24
2022-08-09T16:34:55.942Z,38.89
2022-08-09T16:37:53.487Z,38.95
2022-08-09T16:40:12.462Z,39.37
2022-08-09T16:42:45.186Z,39.34
2022-08-09T16:45:18.734Z,40.42
2022-08-09T16:48:39.027Z,41.14
2022-08-09T16:50:38.893Z,42.49
2022-08-09T16:53:06.498Z,41.29
2022-08-09T16:55:58.269Z,41.75
2022-08-09T16:58:23.733Z,42.51
2022-08-09T17:00:51.070Z,43.38
2022-08-09T17:03:21.370Z,44.48
2022-08-09T17:06:07.734Z,43.71
2022-08-09T17:08:44.380Z,44.88
2022-08-09T17:11:40.870Z,45.24
2022-08-09T17:14:25.857Z,46.06
2022-08-09T17:17:00.076Z,48.01
2022-08-09T17:19:46.410Z,45.74
2022-08-09T17:22:15.073Z,46.64
2022-08-09T17:24:47.875Z,46.93
2022-08-09T17:27:22.625Z,47.66
2022-08-09T17:29:51.524Z,47.21
2022-08-09T17:32:20.213Z,47.54
2022-08-09T17:35:03.954Z,45.63
2022-08-09T17:38:02.576Z,48.18
2022-08-09T17:40:28.660Z,48.76
2022-08-09T17:42:59.717Z,48.77
2022-08-09T17:46:02.168Z,48.45
2022-08-09T17:48:29.301Z,48.70
2022-08-09T17:51:06.528Z,48.16
2022-08-09T17:53:43.247Z,50.42
2022-08-09T17:56:18.392Z,49.23
2022-08-09T17:58:49.069Z,50.46
2022-08-09T18:01:23.109Z,50.29
2022-08-09T18:03:54.642Z,51.15
2022-08-09T18:06:32.310Z,48.97
2022-08-09T18:09:03.121Z,49.85
2022-08-09T18:11:46.966Z,50.85
2022-08-09T18:14:23.292Z,52.66
2022-08-09T18:16:55.636Z,52.60
2022-08-09T18:20:58.070Z,53.45
2022-08-09T18:22:16.661Z,53.34
2022-08-09T18:24:45.975Z,52.72
2022-08-09T18:27:49.239Z,53.90
2022-08-09T18:30:37.646Z,53.92
2022-08-09T18:32:54.427Z,53.78
2022-08-09T18:35:58.578Z,54.00
2022-08-09T18:38:11.766Z,54.04
2022-08-09T18:40:42.949Z,54.66
2022-08-09T18:43:12.727Z,54.94
2022-08-09T18:46:51.089Z,56.69
2022-08-09T18:48:30.419Z,57.48
2022-08-09T18:51:01.078Z,58.10
2022-08-09T18:53:56.586Z,59.61
2022-08-09T18:56:17.156Z,60.15
2022-08-09T18:58:47.801Z,60.33
2022-08-09T19:01:23.393Z,60.10
2022-08-09T19:04:05.937Z,61.04
2022-08-09T19:06:36.195Z,63.36
2022-08-09T19:09:13.630Z,64.38
2022-08-09T19:11:56.371Z,65.30
2022-08-09T19:14:29.520Z,66.38
2022-08-09T19:16:57.000Z,66.25
2022-08-09T19:19:28.045Z,66.66
2022-08-09T19:22:06.713Z,67.14
2022-08-09T19:25:09.796Z,68.16
2022-08-09T19:27:28.446Z,68.31
2022-08-09T19:30:22.565Z,68.24
2022-08-09T19:32:44.313Z,68.72
2022-08-09T19:35:11.593Z,69.90
2022-08-09T19:37:54.398Z,70.51
2022-08-09T19:40:24.032Z,71.16
2022-08-09T19:43:02.045Z,71.29
2022-08-09T19:45:39.103Z,71.81
2022-08-09T19:48:09.583Z,72.72
2022-08-09T19:50:49.250Z,72.77
2022-08-09T19:53:20.771Z,73.03
2022-08-09T19:56:03.205Z,73.57
2022-08-09T19:58:34.468Z,74.26
2022-08-09T20:01:01.830Z,74.75
2022-08-09T20:04:10.665Z,74.41
2022-08-09T20:06:23.704Z,74.44
2022-08-09T20:08:57.927Z,75.33
2022-08-09T20:11:43.098Z,75.01
2022-08-09T20:14:15.600Z,75.73
2022-08-09T20:16:53.214Z,76.80
2022-08-09T20:19:48.233Z,76.57
2022-08-09T20:22:14.521Z,76.88
2022-08-09T20:24:42.951Z,77.17
2022-08-09T20:27:21.498Z,77.22
2022-08-09T20:29:49.496Z,77.66
2022-08-09T20:32:30.750Z,78.72
2022-08-09T20:35:01.424Z,78.52
2022-08-09T20:38:19.563Z,79.34
2022-08-09T20:40:26.390Z,79.38
2022-08-09T20:43:00.048Z,79.90
2022-08-09T20:46:01.507Z,79.47
2022-08-09T20:48:21.207Z,79.88
2022-08-09T20:50:55.791Z,80.14
2022-08-09T20:53:37.652Z,80.47
2022-08-09T20:56:08.637Z,80.33
2022-08-09T20:58:36.371Z,80.72
2022-08-09T21:01:32.554Z,80.56
2022-08-09T21:05:48.912Z,80.85
2022-08-09T21:06:44.464Z,80.43
2022-08-09T21:09:14.062Z,81.04
2022-08-09T21:14:31.327Z,80.83
2022-08-09T21:17:00.469Z,81.17
2022-08-09T21:20:17.549Z,81.28
2022-08-09T21:22:35.907Z,81.90
2022-08-09T21:25:25.887Z,82.47
2022-08-09T21:28:07.275Z,82.21
2022-08-09T21:30:40.179Z,82.56
2022-08-09T21:33:08.737Z,82.40
2022-08-09T21:35:40.822Z,82.68
2022-08-09T21:38:21.016Z,82.42
2022-08-09T21:40:58.885Z,82.92
2022-08-09T21:43:56.122Z,83.40
2022-08-09T21:46:13.973Z,84.09
2022-08-09T21:48:42.601Z,83.94
2022-08-09T21:51:24.180Z,83.92
2022-08-09T21:54:02.485Z,84.54
2022-08-09T21:56:43.604Z,84.91
2022-08-09T21:59:17.077Z,85.23
2022-08-09T22:02:00.648Z,84.86
2022-08-09T22:04:55.391Z,84.95
2022-08-09T22:07:23.451Z,84.63
2022-08-09T22:10:06.681Z,84.58
2022-08-09T22:12:34.523Z,85.11
2022-08-09T22:15:02.747Z,84.21
2022-08-09T22:17:32.199Z,84.07
2022-08-09T22:20:00.581Z,85.60
2022-08-09T22:22:29.081Z,85.03
2022-08-09T22:26:05.377Z,85.99
2022-08-09T22:27:43.619Z,85.89
2022-08-09T22:30:11.576Z,85.11
2022-08-09T22:32:38.869Z,86.04
2022-08-09T22:36:01.086Z,86.01
2022-08-09T22:38:06.669Z,85.53
2022-08-09T22:40:35.272Z,85.99
2022-08-09T22:43:08.690Z,86.21
2022-08-09T22:48:15.662Z,86.01
2022-08-09T22:48:36.208Z,86.55
2022-08-09T22:51:10.893Z,87.16
2022-08-09T22:54:01.043Z,87.41
2022-08-09T22:56:33.602Z,87.33
2022-08-09T22:59:05.709Z,88.30
2022-08-09T23:01:49.278Z,87.25
2022-08-09T23:04:17.253Z,87.88
2022-08-09T23:07:03.594Z,87.95
2022-08-09T23:09:39.491Z,87.54
2022-08-09T23:12:07.011Z,87.73
2022-08-09T23:14:39.242Z,88.45
2022-08-09T23:17:10.793Z,88.87
2022-08-09T23:20:01.130Z,89.32
2022-08-09T23:22:25.812Z,88.13
2022-08-09T23:24:53.075Z,89.35
2022-08-09T23:27:20.364Z,90.11
2022-08-09T23:29:47.633Z,90.10
2022-08-09T23:32:14.956Z,90.66
2022-08-09T23:34:42.647Z,89.73
2022-08-09T23:37:09.919Z,90.09
2022-08-09T23:39:37.281Z,88.98
2022-08-09T23:42:05.414Z,89.78
2022-08-09T23:44:32.682Z,89.26
2022-08-09T23:47:00.092Z,88.97
2022-08-09T23:49:27.526Z,88.89
2022-08-09T23:51:54.971Z,89.57
2022-08-09T23:54:23.061Z,90.16
2022-08-09T23:56:58.060Z,91.30
2022-08-09T23:59:25.823Z,91.12
